KPPA/PPA METAR and TAF weather

Enter ICAO airport designator
Station Type Date Time Source
KPPA METAR 2022/09/28 18:50 UTC NOAA

KPPA 281850Z AUTO 11006KT 10SM CLR 31/06 A3032 RMK AO2 T03110060


Station Type Date Time Source
KPPA Decoded METAR 2022/09/28 18:50 UTC NOAA

Pampa, Perry Lefors Field Airport, TX, United States (KPPA) 35-36-46N 100-59-46W
Sep 28, 2022 - 02:50 PM EDT / 2022.09.28 1850 UTC
Wind: from the ESE (110 degrees) at 7 MPH (6 KT):0
Visibility: 10 mile(s):0
Sky conditions: clear
Temperature: 88.0 F (31.1 C)
Dew Point: 42.8 F (6.0 C)
Relative Humidity: 20%
Pressure (altimeter): 30.32 in. Hg (1026 hPa)
ob: KPPA 281850Z AUTO 11006KT 10SM CLR 31/06 A3032 RMK AO2 T03110060
cycle: 19

Station Type Date Time Source
KPPA TAF UTC NOAA

Error!

Example: see airport list